Time;durP1;ratioP1;P1;durP2;ratioP2;P2;SDS_P1;SDS_P2;PMS_P1;PMS_P2;Temp;Humidity;BMP_temperature;BMP_pressure;BME280_temperature;BME280_humidity;BME280_pressure;Samples;Min_cycle;Max_cycle;Signal;HPM_P1;HPM_P2
2024/02/24 00:00:41;;;;;;;2.45;1.95;;;1.20;99.90;;;;;;5063101;28;20234;-63
2024/02/24 00:03:08;;;;;;;3.13;2.17;;;1.20;99.90;;;;;;5066307;28;20206;-61
2024/02/24 00:05:36;;;;;;;2.30;1.98;;;1.20;99.90;;;;;;5067876;28;20987;-62
2024/02/24 00:08:03;;;;;;;5.88;5.30;;;1.20;99.90;;;;;;5067735;28;20202;-62
2024/02/24 00:10:30;;;;;;;2.50;2.30;;;1.10;99.90;;;;;;5068856;28;20696;-62
2024/02/24 00:12:57;;;;;;;4.40;2.80;;;1.10;99.90;;;;;;5069440;28;20326;-63
2024/02/24 00:15:23;;;;;;;6.32;2.70;;;1.10;99.90;;;;;;5070119;28;20299;-62
2024/02/24 00:17:50;;;;;;;3.47;2.75;;;1.10;99.90;;;;;;5069555;28;20209;-62
2024/02/24 00:20:17;;;;;;;4.63;2.28;;;1.00;99.90;;;;;;5069394;28;20231;-61
2024/02/24 00:22:45;;;;;;;3.78;2.05;;;1.00;99.90;;;;;;5068634;28;20213;-62
2024/02/24 00:25:12;;;;;;;5.93;2.42;;;1.00;99.90;;;;;;5113630;22;20229;-63
2024/02/24 00:27:39;;;;;;;2.83;2.60;;;1.00;99.90;;;;;;5108436;28;20212;-63
2024/02/24 00:30:07;;;;;;;4.13;2.85;;;1.00;99.90;;;;;;5101362;28;20318;-63
2024/02/24 00:32:34;;;;;;;2.10;1.90;;;1.00;99.90;;;;;;5103917;28;20323;-63
2024/02/24 00:35:01;;;;;;;2.50;2.30;;;1.00;99.90;;;;;;5098465;28;20319;-63
2024/02/24 00:37:28;;;;;;;2.92;2.72;;;1.00;99.90;;;;;;5084118;28;20205;-63
2024/02/24 00:39:56;;;;;;;2.10;2.00;;;0.90;99.90;;;;;;5083109;28;20710;-63
2024/02/24 00:42:23;;;;;;;2.90;2.55;;;0.90;99.90;;;;;;5083953;28;20209;-63
2024/02/24 00:44:49;;;;;;;2.97;2.70;;;0.90;99.90;;;;;;5089569;28;20251;-63
2024/02/24 00:47:16;;;;;;;2.67;2.47;;;0.90;99.90;;;;;;5081058;28;20296;-63
2024/02/24 00:49:43;;;;;;;3.42;2.80;;;0.90;99.90;;;;;;5082057;28;20229;-63
2024/02/24 00:52:10;;;;;;;3.40;2.58;;;0.90;99.90;;;;;;5078582;28;20885;-63
2024/02/24 00:54:37;;;;;;;3.33;2.88;;;0.90;99.90;;;;;;5080046;28;20236;-63
2024/02/24 00:57:06;;;;;;;4.95;4.55;;;0.90;99.90;;;;;;5084383;28;20217;-63
2024/02/24 00:59:32;;;;;;;4.85;2.55;;;0.90;99.90;;;;;;5079825;28;20210;-63
2024/02/24 01:01:59;;;;;;;3.63;3.10;;;0.90;99.90;;;;;;5091137;28;20842;-63
2024/02/24 01:04:26;;;;;;;3.40;3.10;;;0.90;99.90;;;;;;5083739;28;20259;-63
2024/02/24 01:06:53;;;;;;;3.00;2.45;;;0.90;99.90;;;;;;5075112;28;20210;-63
2024/02/24 01:09:21;;;;;;;3.10;2.47;;;0.90;99.90;;;;;;5082036;28;20220;-63
2024/02/24 01:11:48;;;;;;;2.28;2.17;;;0.90;99.90;;;;;;5085279;28;20248;-63
2024/02/24 01:14:16;;;;;;;3.30;2.47;;;0.90;99.90;;;;;;5084061;28;20232;-63
2024/02/24 01:16:44;;;;;;;3.13;2.75;;;0.80;99.90;;;;;;5077555;28;20249;-63
2024/02/24 01:19:11;;;;;;;2.65;2.35;;;0.80;99.90;;;;;;5087343;28;20217;-63
2024/02/24 01:21:41;;;;;;;3.55;3.08;;;0.80;99.90;;;;;;5080305;28;20313;-63
2024/02/24 01:24:08;;;;;;;4.00;2.35;;;0.80;99.90;;;;;;5080362;28;20312;-63
2024/02/24 01:26:35;;;;;;;4.75;2.70;;;0.80;99.90;;;;;;5087460;28;20210;-63
2024/02/24 01:29:01;;;;;;;2.25;2.00;;;0.80;99.90;;;;;;5081571;28;20205;-63
2024/02/24 01:31:30;;;;;;;3.13;2.28;;;0.80;99.90;;;;;;5073461;28;20206;-63
2024/02/24 01:33:56;;;;;;;4.70;2.63;;;0.70;99.90;;;;;;5088829;28;20251;-63
2024/02/24 01:36:24;;;;;;;4.32;3.92;;;0.80;99.90;;;;;;5089035;28;20211;-63
2024/02/24 01:38:50;;;;;;;2.63;2.20;;;0.70;99.90;;;;;;5088888;28;20300;-63
2024/02/24 01:41:17;;;;;;;6.03;3.50;;;0.70;99.90;;;;;;5089399;28;20229;-63
2024/02/24 01:43:44;;;;;;;3.50;2.90;;;0.70;99.90;;;;;;5092001;28;20668;-63
2024/02/24 01:46:13;;;;;;;8.40;3.15;;;0.70;99.90;;;;;;5089611;28;20219;-63
2024/02/24 01:48:41;;;;;;;3.25;2.70;;;0.70;99.90;;;;;;5087814;28;20208;-63
2024/02/24 01:51:10;;;;;;;2.15;1.92;;;0.70;99.90;;;;;;5089563;28;20211;-63
2024/02/24 01:53:37;;;;;;;2.20;2.10;;;0.70;99.90;;;;;;5088585;28;20300;-63
2024/02/24 01:56:08;;;;;;;2.45;2.33;;;0.70;99.90;;;;;;5087572;28;20234;-63
2024/02/24 01:58:36;;;;;;;1.95;1.80;;;0.70;99.90;;;;;;5089679;28;20213;-63
2024/02/24 02:01:04;;;;;;;2.40;2.10;;;0.60;99.90;;;;;;5089331;28;20235;-64
2024/02/24 02:03:30;;;;;;;3.50;3.30;;;0.60;99.90;;;;;;5088800;28;20216;-63
2024/02/24 02:05:59;;;;;;;2.80;2.10;;;0.60;99.90;;;;;;5089485;28;20614;-63
2024/02/24 02:08:26;;;;;;;3.25;2.85;;;0.60;99.90;;;;;;5089811;28;20205;-63
2024/02/24 02:10:55;;;;;;;2.65;2.45;;;0.60;99.90;;;;;;5089410;28;20209;-64
2024/02/24 02:13:22;;;;;;;3.25;2.95;;;0.60;99.90;;;;;;5089143;28;20315;-63
2024/02/24 02:15:51;;;;;;;4.90;2.55;;;0.60;99.90;;;;;;5089574;28;20264;-64
2024/02/24 02:18:18;;;;;;;3.05;2.85;;;0.70;99.90;;;;;;5089576;28;20643;-64
2024/02/24 02:20:46;;;;;;;4.38;3.05;;;0.70;99.90;;;;;;5089033;28;20229;-64
2024/02/24 02:23:14;;;;;;;3.95;3.38;;;0.70;99.90;;;;;;5088931;28;20324;-64
2024/02/24 02:25:41;;;;;;;4.00;3.50;;;0.70;99.90;;;;;;5089050;28;20241;-63
2024/02/24 02:28:08;;;;;;;3.28;3.05;;;0.70;99.90;;;;;;5088880;28;20205;-63
2024/02/24 02:30:35;;;;;;;3.05;2.60;;;0.70;99.90;;;;;;5089346;28;20211;-64
2024/02/24 02:33:02;;;;;;;2.80;2.60;;;0.70;99.90;;;;;;5088502;28;20327;-64
2024/02/24 02:35:29;;;;;;;2.60;2.38;;;0.70;99.90;;;;;;5089019;28;20735;-63
2024/02/24 02:37:55;;;;;;;4.15;3.22;;;0.70;99.90;;;;;;5089334;28;20524;-63
2024/02/24 02:40:24;;;;;;;3.03;2.72;;;0.80;99.90;;;;;;5088707;28;20232;-64
2024/02/24 02:42:50;;;;;;;3.92;3.10;;;0.80;99.90;;;;;;5088546;28;20209;-64
2024/02/24 02:45:17;;;;;;;3.78;3.42;;;0.80;99.90;;;;;;5089030;28;20231;-64
2024/02/24 02:47:44;;;;;;;2.97;2.17;;;0.70;99.90;;;;;;5088608;28;20295;-63
2024/02/24 02:50:11;;;;;;;4.00;3.55;;;0.70;99.90;;;;;;5088984;28;20208;-63
2024/02/24 02:52:38;;;;;;;3.80;3.42;;;0.70;99.90;;;;;;5088542;28;20212;-63
2024/02/24 02:55:06;;;;;;;2.95;2.75;;;0.70;99.90;;;;;;5087604;28;20228;-63
2024/02/24 02:57:34;;;;;;;1.90;1.80;;;0.70;99.90;;;;;;5089060;28;20235;-64
2024/02/24 03:00:02;;;;;;;2.58;2.38;;;0.70;99.90;;;;;;5088081;28;20239;-64
2024/02/24 03:02:29;;;;;;;3.20;3.00;;;0.70;99.90;;;;;;5088344;28;20321;-63
2024/02/24 03:04:56;;;;;;;2.60;2.42;;;0.70;99.90;;;;;;5088859;28;20231;-64
2024/02/24 03:07:22;;;;;;;2.70;2.42;;;0.70;99.90;;;;;;5087530;28;20212;-64
2024/02/24 03:09:49;;;;;;;4.70;3.85;;;0.70;99.90;;;;;;5088635;28;20209;-64
2024/02/24 03:12:16;;;;;;;3.95;3.00;;;0.70;99.90;;;;;;5088307;28;20592;-64
2024/02/24 03:14:45;;;;;;;3.92;3.60;;;0.60;99.90;;;;;;5088605;28;20278;-64
2024/02/24 03:17:11;;;;;;;7.05;3.78;;;0.60;99.90;;;;;;5088522;28;20228;-64
2024/02/24 03:19:39;;;;;;;3.78;2.83;;;0.60;99.90;;;;;;5088371;28;20296;-64
2024/02/24 03:22:06;;;;;;;2.90;2.70;;;0.60;99.90;;;;;;5086602;28;20720;-64
2024/02/24 03:24:33;;;;;;;5.03;3.63;;;0.60;99.90;;;;;;5088557;28;20620;-64
2024/02/24 03:27:00;;;;;;;2.67;2.47;;;0.60;99.90;;;;;;5088023;28;20232;-64
2024/02/24 03:29:27;;;;;;;3.10;2.35;;;0.60;99.90;;;;;;5080785;28;20220;-64
2024/02/24 03:31:55;;;;;;;3.78;3.00;;;0.60;99.90;;;;;;5072665;28;20201;-63
2024/02/24 03:34:22;;;;;;;2.92;2.50;;;0.50;99.90;;;;;;5076793;28;20221;-64
2024/02/24 03:36:49;;;;;;;2.90;2.10;;;0.50;99.90;;;;;;5078569;28;20679;-64
2024/02/24 03:39:18;;;;;;;3.90;2.55;;;0.50;99.90;;;;;;5077829;28;20233;-64
2024/02/24 03:41:45;;;;;;;8.25;3.30;;;0.50;99.90;;;;;;5076879;28;20224;-64
2024/02/24 03:44:12;;;;;;;2.78;2.58;;;0.50;99.90;;;;;;5077608;28;20221;-64
2024/02/24 03:46:39;;;;;;;3.13;2.50;;;0.40;99.90;;;;;;5080254;28;20210;-64
2024/02/24 03:49:07;;;;;;;3.83;2.35;;;0.40;99.90;;;;;;5078419;28;20204;-64
2024/02/24 03:51:34;;;;;;;7.45;2.63;;;0.40;99.90;;;;;;5078407;28;20202;-64
2024/02/24 03:54:01;;;;;;;3.35;3.05;;;0.40;99.90;;;;;;5075748;28;20205;-64
2024/02/24 03:56:28;;;;;;;3.83;2.97;;;0.50;99.90;;;;;;5078156;28;20295;-64
2024/02/24 03:58:55;;;;;;;4.55;3.10;;;0.40;99.90;;;;;;5067874;28;20205;-64
2024/02/24 04:01:21;;;;;;;3.85;2.30;;;0.40;99.90;;;;;;5067667;28;20221;-64
2024/02/24 04:03:48;;;;;;;3.53;3.20;;;0.50;99.90;;;;;;5072483;28;20667;-64
2024/02/24 04:06:18;;;;;;;5.68;2.42;;;0.50;99.90;;;;;;5087789;28;20215;-63
2024/02/24 04:08:45;;;;;;;2.75;2.40;;;0.50;99.90;;;;;;5087101;28;20213;-64
2024/02/24 04:11:12;;;;;;;3.58;3.22;;;0.50;99.90;;;;;;5086668;28;20292;-64
2024/02/24 04:13:39;;;;;;;3.03;2.67;;;0.50;99.90;;;;;;5091305;28;20244;-64
2024/02/24 04:16:06;;;;;;;3.28;2.97;;;0.50;99.90;;;;;;5091636;28;20233;-64
2024/02/24 04:18:33;;;;;;;4.00;3.35;;;0.50;99.90;;;;;;5091747;28;20241;-64
2024/02/24 04:21:00;;;;;;;3.40;3.08;;;0.50;99.90;;;;;;5088102;28;20225;-64
2024/02/24 04:23:28;;;;;;;3.55;3.00;;;0.60;99.90;;;;;;5091073;28;20215;-63
2024/02/24 04:25:55;;;;;;;3.13;2.85;;;0.60;99.90;;;;;;5088949;28;20240;-63
2024/02/24 04:28:22;;;;;;;3.20;2.90;;;0.60;99.90;;;;;;5091583;28;20650;-64
2024/02/24 04:30:49;;;;;;;3.30;3.00;;;0.60;99.90;;;;;;5091286;28;20219;-64
2024/02/24 04:33:16;;;;;;;3.85;2.83;;;0.60;99.90;;;;;;5090954;28;20212;-63
2024/02/24 04:35:43;;;;;;;5.07;3.08;;;0.60;99.90;;;;;;5091142;28;20225;-63
2024/02/24 04:38:10;;;;;;;3.38;3.08;;;0.70;99.90;;;;;;5091166;28;20216;-64
2024/02/24 04:40:38;;;;;;;3.45;3.15;;;0.70;99.90;;;;;;5091319;28;20570;-63
2024/02/24 04:43:05;;;;;;;3.20;2.90;;;0.70;99.90;;;;;;5090795;28;20201;-63
2024/02/24 04:45:32;;;;;;;3.30;2.85;;;0.70;99.90;;;;;;5090959;28;20229;-63
2024/02/24 04:47:59;;;;;;;2.55;2.38;;;0.60;99.90;;;;;;5091178;28;20213;-64
2024/02/24 04:50:26;;;;;;;2.80;2.60;;;0.60;99.90;;;;;;5090857;28;20679;-64
2024/02/24 04:52:53;;;;;;;4.65;3.13;;;0.60;99.90;;;;;;5090527;28;20204;-63
2024/02/24 04:55:20;;;;;;;3.08;2.70;;;0.60;99.90;;;;;;5091193;28;20225;-63
2024/02/24 04:57:48;;;;;;;2.97;2.78;;;0.60;99.90;;;;;;5091563;28;20415;-64
2024/02/24 05:00:15;;;;;;;2.28;2.13;;;0.60;99.90;;;;;;5091001;28;20223;-63
2024/02/24 05:02:42;;;;;;;3.63;2.75;;;0.60;99.90;;;;;;5090443;28;20235;-64
2024/02/24 05:05:11;;;;;;;4.85;2.30;;;0.60;99.90;;;;;;5090718;28;20745;-63
2024/02/24 05:07:38;;;;;;;2.65;2.45;;;0.50;99.90;;;;;;5089662;28;20292;-63
2024/02/24 05:10:05;;;;;;;3.63;3.28;;;0.50;99.90;;;;;;5090512;28;20209;-63
2024/02/24 05:12:32;;;;;;;2.83;2.30;;;0.50;99.90;;;;;;5090047;28;20204;-63
2024/02/24 05:15:00;;;;;;;2.50;2.30;;;0.50;99.90;;;;;;5090685;28;20580;-64
2024/02/24 05:17:27;;;;;;;2.60;2.40;;;0.40;99.90;;;;;;5090589;28;20304;-63
2024/02/24 05:19:54;;;;;;;3.13;2.42;;;0.40;99.90;;;;;;5090344;28;20209;-63
2024/02/24 05:22:20;;;;;;;3.05;2.80;;;0.40;99.90;;;;;;5089911;28;20225;-64
2024/02/24 05:24:47;;;;;;;3.50;2.58;;;0.40;99.90;;;;;;5088972;28;20247;-63
2024/02/24 05:27:14;;;;;;;3.13;2.85;;;0.40;99.90;;;;;;5090622;28;20219;-63
2024/02/24 05:29:45;;;;;;;3.03;2.40;;;0.40;99.90;;;;;;5090395;28;20671;-63
2024/02/24 05:32:16;;;;;;;4.55;2.85;;;0.30;99.90;;;;;;5090290;28;20634;-63
2024/02/24 05:34:43;;;;;;;3.13;2.95;;;0.40;99.90;;;;;;5090456;28;20225;-64
2024/02/24 05:37:09;;;;;;;3.00;2.80;;;0.30;99.90;;;;;;5090329;28;20213;-64
2024/02/24 05:39:36;;;;;;;4.20;2.40;;;0.20;99.90;;;;;;5089863;28;20205;-64
2024/02/24 05:42:04;;;;;;;3.05;2.85;;;0.20;99.90;;;;;;5089686;28;20242;-64
2024/02/24 05:44:30;;;;;;;2.40;2.20;;;0.20;99.90;;;;;;5090101;28;20233;-64
2024/02/24 05:46:57;;;;;;;2.85;2.53;;;0.20;99.90;;;;;;5090102;28;20219;-63
2024/02/24 05:49:25;;;;;;;4.03;2.80;;;0.20;99.90;;;;;;5089790;28;20690;-63
2024/02/24 05:51:53;;;;;;;4.78;3.00;;;0.20;99.90;;;;;;5089427;28;20205;-63
2024/02/24 05:54:20;;;;;;;7.35;2.80;;;0.20;99.90;;;;;;5088316;28;20229;-64
2024/02/24 05:56:46;;;;;;;2.40;2.15;;;0.20;99.90;;;;;;5089767;28;20209;-64
2024/02/24 05:59:13;;;;;;;2.88;2.67;;;0.20;99.90;;;;;;5089915;28;20209;-63
2024/02/24 06:01:40;;;;;;;2.92;2.50;;;0.20;99.90;;;;;;5090053;28;20683;-64
2024/02/24 06:04:07;;;;;;;2.63;2.10;;;0.20;99.90;;;;;;5089437;28;20231;-64
2024/02/24 06:06:35;;;;;;;2.95;2.60;;;0.10;99.90;;;;;;5089711;28;20220;-63
2024/02/24 06:09:02;;;;;;;2.50;2.30;;;0.10;99.90;;;;;;5089484;28;20766;-64
2024/02/24 06:11:29;;;;;;;2.40;2.20;;;0.10;99.90;;;;;;5089775;28;20205;-63
2024/02/24 06:13:56;;;;;;;3.58;3.15;;;0.10;99.90;;;;;;5089084;28;20204;-64
2024/02/24 06:16:22;;;;;;;3.30;3.00;;;0.10;99.90;;;;;;5089525;28;20205;-64
2024/02/24 06:18:49;;;;;;;4.47;3.15;;;0.10;99.90;;;;;;5089367;28;20219;-63
2024/02/24 06:21:16;;;;;;;8.07;3.13;;;0.10;99.90;;;;;;5089197;28;20693;-63
2024/02/24 06:23:44;;;;;;;3.33;3.00;;;0.10;99.90;;;;;;5089037;28;20205;-64
2024/02/24 06:26:11;;;;;;;3.30;2.50;;;0.10;99.90;;;;;;5120991;22;20250;-59
2024/02/24 06:28:38;;;;;;;4.32;2.75;;;0.10;99.90;;;;;;5095103;28;20209;-58
2024/02/24 06:31:05;;;;;;;6.18;2.97;;;0.10;99.90;;;;;;5104299;28;20299;-60
2024/02/24 06:33:32;;;;;;;5.50;2.92;;;0.10;99.90;;;;;;5102349;28;20280;-60
2024/02/24 06:35:59;;;;;;;3.22;2.63;;;0.10;99.90;;;;;;5109328;28;20228;-58
2024/02/24 06:38:26;;;;;;;2.33;2.20;;;0.10;99.90;;;;;;5109453;28;20208;-59
2024/02/24 06:40:54;;;;;;;2.95;2.70;;;0.10;99.90;;;;;;5109096;28;20299;-57
2024/02/24 06:43:21;;;;;;;3.47;2.70;;;0.10;99.90;;;;;;5103690;28;20722;-59
2024/02/24 06:45:48;;;;;;;3.33;2.95;;;0.10;99.90;;;;;;5100712;28;20224;-60
2024/02/24 06:48:14;;;;;;;3.70;3.50;;;0.10;99.90;;;;;;5109181;28;20682;-59
2024/02/24 06:50:41;;;;;;;3.20;3.00;;;0.20;99.90;;;;;;5105584;28;20212;-58
2024/02/24 06:53:08;;;;;;;3.45;3.05;;;0.20;99.90;;;;;;5100059;28;20200;-60
2024/02/24 06:55:35;;;;;;;2.97;2.65;;;0.20;99.90;;;;;;5108908;28;20247;-59
2024/02/24 06:58:03;;;;;;;3.58;2.75;;;0.30;99.90;;;;;;5109324;28;20268;-57
2024/02/24 07:00:30;;;;;;;3.00;2.60;;;0.30;99.90;;;;;;5108691;28;20299;-59
2024/02/24 07:02:57;;;;;;;3.65;2.80;;;0.40;99.90;;;;;;5105172;28;20234;-59
2024/02/24 07:05:25;;;;;;;3.30;3.00;;;0.40;99.90;;;;;;5101017;28;20224;-60
2024/02/24 07:07:52;;;;;;;3.45;2.28;;;0.40;99.90;;;;;;5109194;28;20566;-59
2024/02/24 07:10:19;;;;;;;3.25;2.88;;;0.50;99.90;;;;;;5109195;28;20212;-60
2024/02/24 07:12:46;;;;;;;3.88;2.90;;;0.50;99.90;;;;;;5108787;28;20816;-60
2024/02/24 07:15:14;;;;;;;4.97;3.20;;;0.50;99.90;;;;;;5108998;28;20228;-58
2024/02/24 07:17:41;;;;;;;2.85;2.65;;;0.60;99.90;;;;;;5108995;28;20230;-59
2024/02/24 07:20:09;;;;;;;3.22;2.75;;;0.70;99.90;;;;;;5108619;28;20204;-59
2024/02/24 07:22:36;;;;;;;2.50;2.33;;;0.70;99.90;;;;;;5108152;28;20232;-59
2024/02/24 07:25:03;;;;;;;3.95;3.05;;;0.70;99.90;;;;;;5108764;28;20236;-59
2024/02/24 07:27:33;;;;;;;3.03;2.63;;;0.80;99.90;;;;;;5108659;28;20727;-59
2024/02/24 07:30:00;;;;;;;3.88;3.00;;;0.90;99.90;;;;;;5108725;28;20694;-58
2024/02/24 07:32:28;;;;;;;3.70;3.42;;;1.00;99.90;;;;;;5108291;28;20294;-60
2024/02/24 07:34:55;;;;;;;3.70;3.40;;;1.00;99.90;;;;;;5108511;28;20228;-59
2024/02/24 07:37:22;;;;;;;3.92;3.45;;;1.10;99.90;;;;;;5102121;28;20566;-60
2024/02/24 07:39:49;;;;;;;4.60;4.25;;;1.10;99.90;;;;;;5100178;28;20253;-61
2024/02/24 07:42:16;;;;;;;5.93;3.90;;;1.20;99.90;;;;;;5108376;28;20236;-60
2024/02/24 07:44:43;;;;;;;5.82;4.18;;;1.30;99.90;;;;;;5108702;28;20228;-60
2024/02/24 07:47:10;;;;;;;5.90;4.47;;;1.30;99.90;;;;;;5110495;28;20258;-60
2024/02/24 07:49:39;;;;;;;6.72;6.15;;;1.40;99.90;;;;;;5112268;28;20219;-60
2024/02/24 07:52:06;;;;;;;6.95;5.88;;;1.50;99.90;;;;;;5112342;28;20295;-60
2024/02/24 07:54:33;;;;;;;5.22;4.72;;;1.60;99.90;;;;;;5112391;28;20236;-60
2024/02/24 07:57:00;;;;;;;5.85;5.35;;;1.70;99.90;;;;;;5112420;28;20208;-58
2024/02/24 07:59:27;;;;;;;5.57;4.80;;;1.80;99.90;;;;;;5112191;28;20307;-59
2024/02/24 08:01:54;;;;;;;8.40;5.05;;;1.80;99.90;;;;;;5111900;28;20208;-60
2024/02/24 08:04:20;;;;;;;7.10;4.72;;;1.90;99.90;;;;;;5112227;28;20204;-60
2024/02/24 08:06:49;;;;;;;12.70;5.93;;;2.00;99.90;;;;;;5112375;28;20219;-61
2024/02/24 08:09:15;;;;;;;5.88;4.13;;;2.10;99.90;;;;;;5112446;28;20586;-61
2024/02/24 08:11:42;;;;;;;4.47;4.07;;;2.10;99.90;;;;;;5112461;28;20215;-59
2024/02/24 08:14:10;;;;;;;3.90;3.65;;;2.20;99.90;;;;;;5111792;28;20204;-60
2024/02/24 08:16:38;;;;;;;4.78;4.32;;;2.30;99.90;;;;;;5112076;28;20321;-59
2024/02/24 08:19:05;;;;;;;5.43;4.93;;;2.40;99.90;;;;;;5112096;28;20751;-59
2024/02/24 08:21:36;;;;;;;7.63;4.93;;;2.50;99.90;;;;;;5112216;28;20212;-59
2024/02/24 08:24:07;;;;;;;5.22;4.82;;;2.50;99.90;;;;;;5111455;28;20251;-60
2024/02/24 08:26:36;;;;;;;4.57;4.22;;;2.60;99.90;;;;;;5111774;28;20220;-58
2024/02/24 08:29:03;;;;;;;6.50;4.85;;;2.70;99.90;;;;;;5111563;28;20208;-60
2024/02/24 08:31:30;;;;;;;6.18;3.95;;;2.80;99.90;;;;;;5111869;28;20212;-61
2024/02/24 08:33:57;;;;;;;4.65;4.25;;;2.80;99.90;;;;;;5111156;28;20204;-59
2024/02/24 08:36:24;;;;;;;4.25;3.85;;;2.90;99.90;;;;;;5111710;28;20234;-59
2024/02/24 08:38:51;;;;;;;4.00;3.35;;;3.00;99.90;;;;;;5103615;28;20220;-59
2024/02/24 08:41:19;;;;;;;3.38;3.10;;;3.10;99.90;;;;;;5103262;28;20210;-61
2024/02/24 08:43:46;;;;;;;3.42;3.22;;;3.30;99.90;;;;;;5111070;28;20236;-61
2024/02/24 08:46:12;;;;;;;2.90;2.70;;;3.40;99.90;;;;;;5111754;28;20617;-59
2024/02/24 08:48:39;;;;;;;2.45;2.25;;;3.50;99.90;;;;;;5079887;28;20210;-60
2024/02/24 08:51:06;;;;;;;3.47;3.15;;;3.60;99.90;;;;;;5076540;28;20205;-58
2024/02/24 08:53:33;;;;;;;2.95;2.75;;;3.60;99.90;;;;;;5078516;28;20213;-60
2024/02/24 08:56:01;;;;;;;3.03;2.83;;;3.80;99.90;;;;;;5075223;28;20229;-60
2024/02/24 08:58:29;;;;;;;3.45;3.15;;;3.90;99.90;;;;;;5070422;28;20210;-62
2024/02/24 09:00:58;;;;;;;3.20;3.00;;;4.00;99.90;;;;;;5070652;28;20279;-60
2024/02/24 09:03:25;;;;;;;4.10;3.30;;;4.10;99.90;;;;;;5070795;28;20284;-61
2024/02/24 09:05:51;;;;;;;4.65;4.15;;;4.30;99.90;;;;;;5081632;28;20774;-60
2024/02/24 09:08:18;;;;;;;4.35;3.25;;;4.30;99.90;;;;;;5068620;28;20220;-59
2024/02/24 09:10:45;;;;;;;4.82;4.45;;;4.40;99.90;;;;;;5068432;28;20291;-62
2024/02/24 09:13:13;;;;;;;3.20;3.00;;;4.50;99.90;;;;;;5068489;28;20560;-60
2024/02/24 09:15:41;;;;;;;3.03;2.70;;;4.50;99.90;;;;;;5069245;28;20225;-61
2024/02/24 09:18:08;;;;;;;2.88;2.78;;;4.70;99.90;;;;;;5074553;28;20212;-60
2024/02/24 09:20:36;;;;;;;2.63;2.42;;;4.70;99.90;;;;;;5081282;28;20220;-61
2024/02/24 09:23:03;;;;;;;2.75;2.55;;;4.80;99.90;;;;;;5068677;28;20282;-60
2024/02/24 09:25:30;;;;;;;2.60;2.40;;;4.90;99.90;;;;;;5071496;28;20245;-62
2024/02/24 09:27:57;;;;;;;2.47;2.35;;;5.00;99.90;;;;;;5079955;28;20205;-60
2024/02/24 09:30:24;;;;;;;3.00;2.80;;;5.10;99.90;;;;;;5079432;28;20216;-59
2024/02/24 09:32:53;;;;;;;3.65;3.40;;;5.20;99.90;;;;;;5074695;28;20202;-60
2024/02/24 09:35:23;;;;;;;4.68;3.78;;;5.30;99.90;;;;;;5073293;28;20274;-61
2024/02/24 09:37:50;;;;;;;3.08;2.45;;;5.60;99.90;;;;;;5071222;28;20849;-62
2024/02/24 09:40:17;;;;;;;2.00;1.90;;;5.80;99.90;;;;;;5077575;28;20664;-60
2024/02/24 09:42:44;;;;;;;1.77;1.60;;;6.00;99.90;;;;;;5068161;28;20226;-60
2024/02/24 09:45:13;;;;;;;2.10;1.90;;;6.20;99.90;;;;;;5078072;28;20225;-62
2024/02/24 09:47:41;;;;;;;2.28;2.08;;;6.30;99.90;;;;;;5071653;28;20214;-60
2024/02/24 09:50:11;;;;;;;1.90;1.02;;;6.50;99.90;;;;;;5074953;28;20220;-60
2024/02/24 09:52:41;;;;;;;2.88;1.75;;;6.60;99.90;;;;;;5068008;28;20220;-61
2024/02/24 09:55:10;;;;;;;1.35;1.25;;;6.60;99.90;;;;;;5074604;28;20224;-60
2024/02/24 09:57:39;;;;;;;0.93;0.93;;;6.70;99.90;;;;;;5078442;28;20259;-60
2024/02/24 10:00:07;;;;;;;1.70;1.60;;;6.80;99.90;;;;;;5073389;28;20284;-60
2024/02/24 10:02:34;;;;;;;1.48;1.00;;;6.80;99.90;;;;;;5073122;28;20218;-60
2024/02/24 10:05:01;;;;;;;1.10;1.00;;;6.70;99.90;;;;;;5068880;28;20230;-59
2024/02/24 10:07:31;;;;;;;1.15;1.05;;;6.80;99.90;;;;;;5071582;28;20216;-61
2024/02/24 10:09:57;;;;;;;1.55;1.30;;;6.80;99.90;;;;;;5069053;28;20289;-60
2024/02/24 10:12:25;;;;;;;0.70;0.70;;;6.90;99.90;;;;;;5072746;28;20212;-60
2024/02/24 10:14:52;;;;;;;2.40;0.80;;;7.00;99.90;;;;;;5080340;28;20225;-60
2024/02/24 10:17:18;;;;;;;1.17;1.08;;;7.10;99.90;;;;;;5094121;28;20297;-60
2024/02/24 10:19:46;;;;;;;1.40;1.40;;;7.10;99.90;;;;;;5068639;28;20202;-61
2024/02/24 10:22:17;;;;;;;1.40;1.30;;;7.20;99.90;;;;;;5072687;28;20220;-60
2024/02/24 10:24:46;;;;;;;1.25;0.90;;;7.20;99.90;;;;;;5088738;28;20237;-60
2024/02/24 10:27:16;;;;;;;1.95;1.02;;;7.20;99.90;;;;;;5069497;28;20210;-60
2024/02/24 10:29:43;;;;;;;1.40;0.88;;;7.20;99.90;;;;;;5081380;28;20239;-60
2024/02/24 10:32:12;;;;;;;1.00;1.00;;;7.10;99.90;;;;;;5096606;28;20217;-60
2024/02/24 10:34:39;;;;;;;0.95;0.93;;;7.20;99.90;;;;;;5066163;28;20887;-60
2024/02/24 10:37:07;;;;;;;1.20;1.10;;;7.40;99.90;;;;;;5068167;28;20209;-61
2024/02/24 10:39:36;;;;;;;2.10;2.00;;;7.70;99.90;;;;;;5068033;28;20209;-61
2024/02/24 10:42:06;;;;;;;1.17;1.17;;;8.20;99.90;;;;;;5073321;28;20666;-62
2024/02/24 10:44:34;;;;;;;0.70;0.70;;;8.50;99.90;;;;;;5077541;28;21085;-61
2024/02/24 10:47:01;;;;;;;2.43;0.80;;;8.70;99.90;;;;;;5067899;28;20448;-60
2024/02/24 10:49:29;;;;;;;0.57;0.57;;;9.00;99.90;;;;;;5086311;28;20455;-60
2024/02/24 10:51:56;;;;;;;0.83;0.60;;;9.00;99.90;;;;;;5079892;28;20461;-60
2024/02/24 10:54:28;;;;;;;1.63;1.00;;;9.00;99.90;;;;;;5073380;28;20931;-61
2024/02/24 10:56:59;;;;;;;0.60;0.47;;;9.00;99.90;;;;;;5076228;28;20543;-61
2024/02/24 10:59:31;;;;;;;0.70;0.70;;;9.00;99.90;;;;;;5078900;28;20454;-61
2024/02/24 11:02:01;;;;;;;0.67;0.67;;;9.00;99.90;;;;;;5072297;28;20459;-61
2024/02/24 11:04:28;;;;;;;0.63;0.63;;;9.10;99.90;;;;;;5077520;28;20497;-60
2024/02/24 11:06:56;;;;;;;0.60;0.60;;;9.20;99.90;;;;;;5074081;28;20953;-59
2024/02/24 11:09:30;;;;;;;0.60;0.60;;;9.20;99.90;;;;;;5066968;28;20448;-60
2024/02/24 11:12:04;;;;;;;0.70;0.70;;;9.10;99.90;;;;;;5078598;28;20454;-61
2024/02/24 11:14:32;;;;;;;0.77;0.77;;;9.00;99.90;;;;;;5085604;28;20458;-61
2024/02/24 11:16:59;;;;;;;0.50;0.50;;;8.90;99.90;;;;;;5075984;28;20539;-60
2024/02/24 11:19:42;;;;;;;0.47;0.47;;;8.90;99.90;;;;;;5068859;28;20994;-61
2024/02/24 11:22:12;;;;;;;0.50;0.50;;;8.90;99.90;;;;;;5074462;28;21087;-59
2024/02/24 11:24:39;;;;;;;0.70;0.70;;;8.80;99.90;;;;;;5082446;28;20493;-60
2024/02/24 11:27:07;;;;;;;1.47;0.70;;;8.80;99.90;;;;;;5081672;28;20459;-60
2024/02/24 11:29:36;;;;;;;0.80;0.70;;;8.70;99.90;;;;;;5081636;28;20450;-60
2024/02/24 11:32:09;;;;;;;2.30;0.60;;;8.70;99.90;;;;;;5084555;28;20466;-61
2024/02/24 11:34:37;;;;;;;0.50;0.50;;;8.60;99.90;;;;;;5080794;28;20468;-61
2024/02/24 11:37:04;;;;;;;0.50;0.50;;;8.50;99.90;;;;;;5086152;28;20777;-61
2024/02/24 11:39:33;;;;;;;0.50;0.50;;;8.50;99.90;;;;;;5072759;28;20214;-61
2024/02/24 11:42:01;;;;;;;0.53;0.50;;;8.70;99.90;;;;;;5086807;28;20292;-60
2024/02/24 11:44:27;;;;;;;0.50;0.50;;;8.90;99.90;;;;;;5080837;28;20501;-60
2024/02/24 11:46:57;;;;;;;1.20;0.60;;;9.20;99.90;;;;;;5090712;28;20455;-61
2024/02/24 11:49:25;;;;;;;0.40;0.40;;;9.50;99.90;;;;;;5083867;28;20450;-59
2024/02/24 11:51:52;;;;;;;1.07;0.60;;;9.70;99.90;;;;;;5076546;28;21061;-63
2024/02/24 11:54:20;;;;;;;1.53;0.40;;;9.90;99.90;;;;;;5088296;28;20827;-61
2024/02/24 11:56:47;;;;;;;4.40;1.23;;;10.20;99.90;;;;;;5080929;28;20498;-60
2024/02/24 11:59:15;;;;;;;0.60;0.40;;;10.30;99.90;;;;;;5091752;28;20444;-61
2024/02/24 12:01:42;;;;;;;0.60;0.60;;;10.30;99.90;;;;;;5079015;28;20899;-61
2024/02/24 12:04:13;;;;;;;0.53;0.53;;;10.30;99.90;;;;;;5073966;28;20497;-61
2024/02/24 12:06:43;;;;;;;0.60;0.43;;;10.30;99.90;;;;;;5084498;28;20995;-60
2024/02/24 12:09:10;;;;;;;1.60;0.90;;;10.40;99.90;;;;;;5084340;28;20455;-61
2024/02/24 12:11:37;;;;;;;1.30;0.57;;;10.60;99.90;;;;;;5092384;28;20436;-61
2024/02/24 12:14:04;;;;;;;1.40;0.80;;;10.70;99.90;;;;;;5077029;28;20832;-62
2024/02/24 12:16:31;;;;;;;0.30;0.30;;;10.70;99.40;;;;;;5069942;28;20462;-61
2024/02/24 12:18:58;;;;;;;1.70;0.50;;;10.60;99.00;;;;;;5080464;28;20444;-61
2024/02/24 12:21:28;;;;;;;2.43;1.07;;;10.40;99.10;;;;;;5072327;28;20454;-61
2024/02/24 12:23:57;;;;;;;0.93;0.67;;;10.20;98.20;;;;;;5069880;28;20489;-61
2024/02/24 12:26:26;;;;;;;0.60;0.60;;;10.10;98.50;;;;;;5111586;22;20491;-64
2024/02/24 12:28:53;;;;;;;1.30;1.20;;;9.90;99.90;;;;;;5098593;28;21348;-64
2024/02/24 12:31:20;;;;;;;0.93;0.80;;;9.70;99.90;;;;;;5107207;28;20442;-64
2024/02/24 12:33:47;;;;;;;1.20;0.97;;;9.60;99.90;;;;;;5108512;28;20908;-64
2024/02/24 12:36:15;;;;;;;1.63;1.53;;;9.60;99.90;;;;;;5106523;28;20464;-64
2024/02/24 12:38:44;;;;;;;2.50;2.30;;;9.70;99.70;;;;;;5101989;28;20452;-64
2024/02/24 12:41:12;;;;;;;1.03;0.80;;;9.70;99.60;;;;;;5086445;28;20447;-64
2024/02/24 12:43:40;;;;;;;2.37;1.93;;;9.70;99.80;;;;;;5081913;28;20483;-64
2024/02/24 12:46:07;;;;;;;0.70;0.70;;;9.80;99.90;;;;;;5080856;28;21019;-64
2024/02/24 12:48:35;;;;;;;0.80;0.70;;;10.10;99.90;;;;;;5080702;28;20459;-64
2024/02/24 12:51:02;;;;;;;0.70;0.70;;;10.60;99.90;;;;;;5099440;28;20453;-64
2024/02/24 12:53:28;;;;;;;1.00;0.90;;;11.10;98.90;;;;;;5096678;28;20534;-64
2024/02/24 12:55:59;;;;;;;0.97;0.90;;;11.40;99.00;;;;;;5106771;28;20549;-64